Time;durP1;ratioP1;P1;durP2;ratioP2;P2;SDS_P1;SDS_P2;PMS_P1;PMS_P2;Temp;Humidity;BMP_temperature;BMP_pressure;BME280_temperature;BME280_humidity;BME280_pressure;Samples;Min_cycle;Max_cycle;Signal;HPM_P1;HPM_P2
2024/01/06 00:02:18;;;;;;;9.07;3.15;;;6.90;97.20;;;;;;5054995;28;20025;-76
2024/01/06 00:04:43;;;;;;;9.52;3.60;;;6.90;97.30;;;;;;5056812;28;20027;-77
2024/01/06 00:07:09;;;;;;;10.77;3.08;;;6.90;97.30;;;;;;5035209;28;20025;-77
2024/01/06 00:09:35;;;;;;;8.82;2.53;;;6.90;97.30;;;;;;5053931;28;20119;-74
2024/01/06 00:12:02;;;;;;;9.40;2.75;;;6.90;97.30;;;;;;5057194;28;20020;-75
2024/01/06 00:14:27;;;;;;;11.20;3.20;;;6.90;97.30;;;;;;5039759;28;20029;-77
2024/01/06 00:16:53;;;;;;;9.50;2.70;;;6.90;97.30;;;;;;5039144;28;20044;-76
2024/01/06 00:19:19;;;;;;;10.23;3.10;;;6.90;97.40;;;;;;5057751;28;20039;-75
2024/01/06 00:21:45;;;;;;;12.15;4.05;;;7.00;97.50;;;;;;5055663;28;20021;-77
2024/01/06 00:24:10;;;;;;;9.88;3.58;;;6.90;97.50;;;;;;5051796;28;20088;-77
2024/01/06 00:26:36;;;;;;;13.93;3.40;;;6.90;97.40;;;;;;5056438;28;20111;-77
2024/01/06 00:29:01;;;;;;;12.45;3.33;;;6.90;97.40;;;;;;5041622;28;20021;-76
2024/01/06 00:31:27;;;;;;;10.93;2.75;;;6.90;97.40;;;;;;5058628;28;20432;-75
2024/01/06 00:33:53;;;;;;;11.52;3.55;;;6.90;97.40;;;;;;5049369;28;20029;-77
2024/01/06 00:36:18;;;;;;;12.05;3.28;;;6.90;97.40;;;;;;5041246;28;20028;-78
2024/01/06 00:38:44;;;;;;;10.27;2.83;;;6.90;97.30;;;;;;5041142;28;20071;-77
2024/01/06 00:41:10;;;;;;;10.23;3.35;;;6.90;97.30;;;;;;5059170;28;20752;-75
2024/01/06 00:43:35;;;;;;;9.35;2.47;;;6.90;97.10;;;;;;5038670;28;20039;-76
2024/01/06 00:46:01;;;;;;;11.35;3.25;;;6.90;97.10;;;;;;5052196;28;20025;-77
2024/01/06 00:48:26;;;;;;;13.80;2.90;;;7.00;97.00;;;;;;5053753;28;20021;-77
2024/01/06 00:50:52;;;;;;;11.63;3.75;;;6.90;97.00;;;;;;5058235;28;20112;-76
2024/01/06 00:53:18;;;;;;;10.35;3.00;;;6.90;96.90;;;;;;5052363;28;20473;-76
2024/01/06 00:55:43;;;;;;;9.40;2.95;;;7.00;96.80;;;;;;5042957;28;20032;-75
2024/01/06 00:58:09;;;;;;;8.85;3.05;;;6.90;96.80;;;;;;5039378;28;20032;-77
2024/01/06 01:00:35;;;;;;;11.60;3.67;;;7.00;96.80;;;;;;5055323;28;20195;-76
2024/01/06 01:03:00;;;;;;;9.18;2.63;;;7.00;96.70;;;;;;5038101;28;20040;-75
2024/01/06 01:05:26;;;;;;;13.80;3.67;;;7.00;96.70;;;;;;5053985;28;20039;-77
2024/01/06 01:07:51;;;;;;;13.73;2.83;;;7.00;96.60;;;;;;5044287;28;20116;-76
2024/01/06 01:10:17;;;;;;;9.43;2.72;;;7.00;96.40;;;;;;5055278;28;20016;-75
2024/01/06 01:12:43;;;;;;;6.18;2.70;;;7.00;96.40;;;;;;5058271;28;20362;-77
2024/01/06 01:15:08;;;;;;;10.52;2.25;;;7.00;96.40;;;;;;5060335;28;20027;-77
2024/01/06 01:17:34;;;;;;;9.90;2.80;;;7.00;96.40;;;;;;5053044;28;20495;-79
2024/01/06 01:20:00;;;;;;;10.18;2.30;;;7.00;96.30;;;;;;5045145;28;20047;-77
2024/01/06 01:22:25;;;;;;;9.10;2.45;;;7.00;96.40;;;;;;5062060;28;20947;-77
2024/01/06 01:24:51;;;;;;;9.55;2.40;;;7.00;96.40;;;;;;5061007;28;20029;-77
2024/01/06 01:27:16;;;;;;;11.38;2.60;;;7.00;96.40;;;;;;5066031;28;20103;-75
2024/01/06 01:29:42;;;;;;;13.13;2.67;;;7.00;96.40;;;;;;5059197;28;20408;-76
2024/01/06 01:32:08;;;;;;;10.85;2.75;;;7.10;96.40;;;;;;5059878;28;20062;-76
2024/01/06 01:34:34;;;;;;;10.35;2.83;;;7.10;96.40;;;;;;5066611;28;20111;-75
2024/01/06 01:37:00;;;;;;;10.73;2.78;;;7.10;96.40;;;;;;5041874;28;20020;-77
2024/01/06 01:39:25;;;;;;;8.88;2.50;;;7.10;96.30;;;;;;5042879;28;20044;-77
2024/01/06 01:41:51;;;;;;;10.07;2.60;;;7.10;96.30;;;;;;5058480;28;20070;-76
2024/01/06 01:44:17;;;;;;;9.18;2.65;;;7.10;96.20;;;;;;5060453;28;20028;-77
2024/01/06 01:46:42;;;;;;;11.40;2.80;;;7.10;96.30;;;;;;5054660;28;20024;-77
2024/01/06 01:49:08;;;;;;;9.27;2.70;;;7.10;96.30;;;;;;5057344;28;20893;-78
2024/01/06 01:51:35;;;;;;;14.00;2.95;;;7.10;96.50;;;;;;5057197;28;20493;-75
2024/01/06 01:54:06;;;;;;;8.95;2.45;;;7.10;96.60;;;;;;5062490;28;20070;-77
2024/01/06 01:56:35;;;;;;;8.88;2.70;;;7.10;96.80;;;;;;5057329;28;20029;-77
2024/01/06 01:59:09;;;;;;;9.32;2.35;;;7.10;96.80;;;;;;5060940;28;20078;-76
2024/01/06 02:01:34;;;;;;;12.23;2.90;;;7.10;96.80;;;;;;5035713;28;20594;-75
2024/01/06 02:04:00;;;;;;;8.20;2.40;;;7.00;96.80;;;;;;5056708;28;20158;-76
2024/01/06 02:06:27;;;;;;;11.05;2.47;;;7.10;96.90;;;;;;5058185;28;20032;-77
2024/01/06 02:08:53;;;;;;;8.30;2.13;;;7.00;97.00;;;;;;5052438;28;20075;-77
2024/01/06 02:11:18;;;;;;;11.32;2.95;;;7.00;97.00;;;;;;5053786;28;20116;-77
2024/01/06 02:13:44;;;;;;;9.52;2.60;;;7.00;97.00;;;;;;5038511;28;20040;-77
2024/01/06 02:16:09;;;;;;;11.30;3.00;;;7.00;96.90;;;;;;5055740;28;20559;-78
2024/01/06 02:18:35;;;;;;;10.20;2.15;;;7.00;97.00;;;;;;5059651;28;20569;-78
2024/01/06 02:21:02;;;;;;;6.85;1.98;;;7.00;96.90;;;;;;5058987;28;20021;-76
2024/01/06 02:23:28;;;;;;;11.55;2.50;;;7.00;96.90;;;;;;5041835;28;20041;-76
2024/01/06 02:25:54;;;;;;;12.82;2.60;;;7.00;97.00;;;;;;5060563;28;20029;-78
2024/01/06 02:28:20;;;;;;;11.88;2.75;;;7.00;96.90;;;;;;5057372;28;20059;-76
2024/01/06 02:30:46;;;;;;;14.95;3.00;;;7.00;96.90;;;;;;5056992;28;20520;-77
2024/01/06 02:33:11;;;;;;;11.25;2.50;;;7.00;96.80;;;;;;5058890;28;20481;-79
2024/01/06 02:35:37;;;;;;;11.70;3.25;;;7.00;96.90;;;;;;5035014;28;20374;-75
2024/01/06 02:38:03;;;;;;;8.93;2.50;;;7.00;96.90;;;;;;5058826;28;20043;-77
2024/01/06 02:40:29;;;;;;;8.55;2.45;;;7.10;96.90;;;;;;5039364;28;20187;-75
2024/01/06 02:42:55;;;;;;;10.60;2.63;;;7.00;96.90;;;;;;5040217;28;20027;-79
2024/01/06 02:45:20;;;;;;;9.73;2.42;;;7.00;96.90;;;;;;5042892;28;20027;-76
2024/01/06 02:47:46;;;;;;;9.23;3.13;;;7.00;97.00;;;;;;5051901;28;20086;-77
2024/01/06 02:50:11;;;;;;;9.75;2.50;;;7.00;97.10;;;;;;5064455;28;20024;-75
2024/01/06 02:52:37;;;;;;;9.98;2.45;;;7.00;97.10;;;;;;5058277;28;20027;-78
2024/01/06 02:55:03;;;;;;;10.77;2.38;;;7.00;97.10;;;;;;5060560;28;20052;-75
2024/01/06 02:57:30;;;;;;;9.38;3.15;;;7.00;97.20;;;;;;5055069;28;20032;-77
2024/01/06 02:59:56;;;;;;;8.95;2.55;;;7.00;97.20;;;;;;5054738;28;20293;-76
2024/01/06 03:02:21;;;;;;;9.25;2.63;;;7.00;97.30;;;;;;5051087;28;20426;-76
2024/01/06 03:04:47;;;;;;;11.68;3.47;;;7.00;97.30;;;;;;5053355;28;20024;-78
2024/01/06 03:07:13;;;;;;;11.82;3.15;;;7.00;97.30;;;;;;5036143;28;20384;-76
2024/01/06 03:09:38;;;;;;;12.25;2.92;;;7.00;97.40;;;;;;5054150;28;20021;-77
2024/01/06 03:12:08;;;;;;;9.38;2.67;;;7.00;97.50;;;;;;5040053;28;20016;-75
2024/01/06 03:14:37;;;;;;;10.00;2.88;;;7.00;97.40;;;;;;5055535;28;20067;-76
2024/01/06 03:17:04;;;;;;;9.85;3.05;;;7.00;97.50;;;;;;5040676;28;20095;-77
2024/01/06 03:19:30;;;;;;;9.10;2.83;;;7.00;97.60;;;;;;5053740;28;20105;-76
2024/01/06 03:21:56;;;;;;;9.32;2.50;;;7.00;97.70;;;;;;5040313;28;20033;-75
2024/01/06 03:24:23;;;;;;;8.48;2.40;;;7.00;97.70;;;;;;5056943;28;20032;-77
2024/01/06 03:26:49;;;;;;;12.30;3.05;;;7.10;97.70;;;;;;5057722;28;20550;-78
2024/01/06 03:29:14;;;;;;;8.85;2.70;;;7.00;97.70;;;;;;5038264;28;20049;-76
2024/01/06 03:31:44;;;;;;;10.35;2.42;;;7.00;97.80;;;;;;5040889;28;20052;-78
2024/01/06 03:34:11;;;;;;;10.02;2.90;;;7.10;97.80;;;;;;5042125;28;20434;-76
2024/01/06 03:36:39;;;;;;;10.65;2.88;;;7.10;97.80;;;;;;5057731;28;20020;-76
2024/01/06 03:39:06;;;;;;;10.48;2.95;;;7.10;97.80;;;;;;5036971;28;20036;-79
2024/01/06 03:41:31;;;;;;;7.90;2.63;;;7.10;97.80;;;;;;5059285;28;21213;-78
2024/01/06 03:43:57;;;;;;;10.40;2.88;;;7.00;97.80;;;;;;5056613;28;20032;-77
2024/01/06 03:46:23;;;;;;;13.50;2.70;;;7.00;97.80;;;;;;5062931;28;20035;-79
2024/01/06 03:48:49;;;;;;;8.68;2.83;;;7.00;97.80;;;;;;5064344;28;20027;-79
2024/01/06 03:51:14;;;;;;;7.28;2.35;;;7.10;97.80;;;;;;5066154;28;20020;-79
2024/01/06 03:53:40;;;;;;;9.40;2.58;;;7.00;97.80;;;;;;5069024;28;20051;-80
2024/01/06 03:56:06;;;;;;;13.15;2.97;;;7.00;97.70;;;;;;5063381;28;20059;-78
2024/01/06 03:58:32;;;;;;;11.25;3.15;;;7.00;97.70;;;;;;5071533;28;20037;-78
2024/01/06 04:00:58;;;;;;;9.35;2.70;;;7.00;97.70;;;;;;5081130;28;20020;-78
2024/01/06 04:03:23;;;;;;;7.72;2.63;;;7.00;97.70;;;;;;5079625;28;20051;-79
2024/01/06 04:05:49;;;;;;;10.05;2.50;;;7.00;97.60;;;;;;5081546;28;20048;-78
2024/01/06 04:08:15;;;;;;;11.55;3.53;;;7.00;97.60;;;;;;5073103;28;20249;-75
2024/01/06 04:10:41;;;;;;;9.40;2.72;;;7.00;97.60;;;;;;5060374;28;20020;-78
2024/01/06 04:13:07;;;;;;;7.93;2.35;;;7.00;97.60;;;;;;5043246;28;20109;-76
2024/01/06 04:15:33;;;;;;;9.50;2.65;;;7.00;97.60;;;;;;5040218;28;20031;-78
2024/01/06 04:18:05;;;;;;;6.03;2.63;;;7.00;97.60;;;;;;5039324;28;20245;-75
2024/01/06 04:20:32;;;;;;;6.80;2.35;;;7.00;97.60;;;;;;5042950;28;20393;-75
2024/01/06 04:22:57;;;;;;;8.35;2.30;;;7.00;97.60;;;;;;5051738;28;20033;-79
2024/01/06 04:25:23;;;;;;;9.43;2.13;;;7.00;97.60;;;;;;5076503;28;20116;-77
2024/01/06 04:27:49;;;;;;;8.07;2.13;;;7.00;97.60;;;;;;5081152;28;20035;-77
2024/01/06 04:30:15;;;;;;;5.78;1.95;;;7.00;97.50;;;;;;5044124;28;20146;-74
2024/01/06 04:32:41;;;;;;;9.05;1.98;;;7.00;97.30;;;;;;5056096;28;20110;-76
2024/01/06 04:35:07;;;;;;;5.95;2.08;;;7.00;97.30;;;;;;5053024;28;20069;-75
2024/01/06 04:37:33;;;;;;;7.68;1.98;;;7.00;97.30;;;;;;5050309;28;20036;-77
2024/01/06 04:39:59;;;;;;;7.55;2.15;;;6.90;97.10;;;;;;5042194;28;20029;-77
2024/01/06 04:42:25;;;;;;;8.20;2.03;;;6.90;97.10;;;;;;5038189;28;20085;-76
2024/01/06 04:44:51;;;;;;;6.20;2.00;;;6.90;96.90;;;;;;5056044;28;20485;-77
2024/01/06 04:47:16;;;;;;;4.05;1.42;;;6.90;96.90;;;;;;5055904;28;20457;-75
2024/01/06 04:49:42;;;;;;;8.98;1.90;;;6.90;96.90;;;;;;5062731;28;20047;-75
2024/01/06 04:52:08;;;;;;;6.68;2.17;;;6.90;96.80;;;;;;5040735;28;20028;-77
2024/01/06 04:54:33;;;;;;;5.28;1.65;;;6.90;96.80;;;;;;5051595;28;20020;-77
2024/01/06 04:56:59;;;;;;;7.47;2.00;;;6.90;96.80;;;;;;5040913;28;20020;-76
2024/01/06 04:59:25;;;;;;;6.38;1.77;;;6.90;96.70;;;;;;5056367;28;20037;-75
2024/01/06 05:01:51;;;;;;;6.97;1.85;;;6.90;96.80;;;;;;5041664;28;20039;-75
2024/01/06 05:04:17;;;;;;;6.00;2.05;;;6.80;96.80;;;;;;5056474;28;20040;-79
2024/01/06 05:06:43;;;;;;;7.45;2.08;;;6.90;96.80;;;;;;5061919;28;20406;-76
2024/01/06 05:09:09;;;;;;;3.10;1.50;;;6.90;96.70;;;;;;5044968;28;20489;-77
2024/01/06 05:11:34;;;;;;;5.38;1.65;;;6.90;96.60;;;;;;5061931;28;20453;-78
2024/01/06 05:14:00;;;;;;;4.63;1.95;;;6.90;96.60;;;;;;5042704;28;20492;-77
2024/01/06 05:16:26;;;;;;;4.95;1.90;;;6.90;96.50;;;;;;5061952;28;20036;-77
2024/01/06 05:18:51;;;;;;;5.50;1.67;;;6.90;96.50;;;;;;5033039;28;20020;-77
2024/01/06 05:21:17;;;;;;;8.02;1.83;;;6.90;96.60;;;;;;5056546;28;20469;-77
2024/01/06 05:23:43;;;;;;;6.00;1.70;;;6.90;96.60;;;;;;5050755;28;20028;-77
2024/01/06 05:26:09;;;;;;;6.97;2.15;;;6.90;96.80;;;;;;5057545;28;20095;-76
2024/01/06 05:28:35;;;;;;;6.03;2.10;;;6.90;96.80;;;;;;5061823;28;20540;-76
2024/01/06 05:31:00;;;;;;;7.97;2.47;;;6.90;96.90;;;;;;5056929;28;20031;-77
2024/01/06 05:33:26;;;;;;;7.05;2.13;;;6.90;96.90;;;;;;5058251;28;20041;-75
2024/01/06 05:35:51;;;;;;;6.20;2.35;;;6.80;97.10;;;;;;5038547;28;20029;-74
2024/01/06 05:38:17;;;;;;;6.95;2.30;;;6.80;97.10;;;;;;5056162;28;20472;-78
2024/01/06 05:40:43;;;;;;;7.45;2.60;;;6.80;97.20;;;;;;5059813;28;20072;-74
2024/01/06 05:43:08;;;;;;;7.93;2.80;;;6.80;97.30;;;;;;5057801;28;20370;-77
2024/01/06 05:45:34;;;;;;;10.50;2.85;;;6.80;97.30;;;;;;5062267;28;20581;-75
2024/01/06 05:48:00;;;;;;;7.32;2.70;;;6.80;97.30;;;;;;5051678;28;21057;-75
2024/01/06 05:50:25;;;;;;;7.22;2.40;;;6.80;97.30;;;;;;5062171;28;20116;-77
2024/01/06 05:52:51;;;;;;;5.72;2.88;;;6.80;97.40;;;;;;5055696;28;20353;-75
2024/01/06 05:55:17;;;;;;;4.63;2.30;;;6.80;97.40;;;;;;5057852;28;20029;-77
2024/01/06 05:57:43;;;;;;;7.30;2.80;;;6.90;97.50;;;;;;5056539;28;20047;-74
2024/01/06 06:00:10;;;;;;;8.35;2.78;;;6.90;97.50;;;;;;5059613;28;20734;-74
2024/01/06 06:02:36;;;;;;;8.48;3.38;;;6.90;97.50;;;;;;5059281;28;20039;-78
2024/01/06 06:05:02;;;;;;;9.60;3.42;;;6.80;97.50;;;;;;5061188;28;20020;-74
2024/01/06 06:07:28;;;;;;;7.43;2.90;;;6.90;97.70;;;;;;5057010;28;20031;-75
2024/01/06 06:09:54;;;;;;;9.43;2.90;;;6.80;97.70;;;;;;5041054;28;20481;-76
2024/01/06 06:12:19;;;;;;;7.65;3.13;;;6.80;97.80;;;;;;5057991;28;20032;-76
2024/01/06 06:14:45;;;;;;;8.43;2.92;;;6.80;97.80;;;;;;5042307;28;20016;-76
2024/01/06 06:17:10;;;;;;;8.93;3.47;;;6.90;97.80;;;;;;5033431;28;20044;-76
2024/01/06 06:19:36;;;;;;;7.22;3.05;;;6.80;97.90;;;;;;5061444;28;20532;-76
2024/01/06 06:22:02;;;;;;;6.32;3.00;;;6.80;97.90;;;;;;5061592;28;20090;-77
2024/01/06 06:24:27;;;;;;;7.68;3.00;;;6.80;97.80;;;;;;5058834;28;20111;-76
2024/01/06 06:26:53;;;;;;;8.10;2.90;;;6.80;97.80;;;;;;5042706;28;20067;-76
2024/01/06 06:29:20;;;;;;;8.20;2.70;;;6.80;97.80;;;;;;5056189;28;20041;-80
2024/01/06 06:31:46;;;;;;;7.53;2.83;;;6.80;97.80;;;;;;5036782;28;20217;-78
2024/01/06 06:34:12;;;;;;;8.10;3.08;;;6.80;97.80;;;;;;5056880;28;20455;-76
2024/01/06 06:36:38;;;;;;;7.85;3.05;;;6.80;97.80;;;;;;5060789;28;20337;-75
2024/01/06 06:39:04;;;;;;;7.43;3.30;;;6.80;97.80;;;;;;5054983;28;20032;-75
2024/01/06 06:41:30;;;;;;;7.70;3.20;;;6.80;97.90;;;;;;5043128;28;20017;-80
2024/01/06 06:43:59;;;;;;;7.95;3.10;;;6.70;97.80;;;;;;5056604;28;20536;-76
2024/01/06 06:46:25;;;;;;;8.55;3.35;;;6.80;97.90;;;;;;5039441;28;20111;-78
2024/01/06 06:48:51;;;;;;;12.77;4.47;;;6.70;97.80;;;;;;5038177;28;20074;-78
2024/01/06 06:51:16;;;;;;;6.32;3.38;;;6.70;97.90;;;;;;5042134;28;20134;-77
2024/01/06 06:53:42;;;;;;;8.27;3.60;;;6.70;97.80;;;;;;5058332;28;20024;-76
2024/01/06 06:56:08;;;;;;;7.70;3.10;;;6.80;97.80;;;;;;5058033;28;20040;-76
2024/01/06 06:58:33;;;;;;;8.45;3.58;;;6.80;97.80;;;;;;5055605;28;20032;-78
2024/01/06 07:00:59;;;;;;;10.45;3.47;;;6.80;97.70;;;;;;5032267;28;20078;-77
2024/01/06 07:03:26;;;;;;;9.13;3.90;;;6.80;97.70;;;;;;5056147;28;20489;-75
2024/01/06 07:05:52;;;;;;;8.88;3.47;;;6.70;97.70;;;;;;5051054;28;20374;-75
2024/01/06 07:08:18;;;;;;;7.88;3.40;;;6.80;97.70;;;;;;5057501;28;20085;-77
2024/01/06 07:10:43;;;;;;;10.43;4.32;;;6.70;97.70;;;;;;5036324;28;20499;-76
2024/01/06 07:13:09;;;;;;;9.57;4.07;;;6.70;97.70;;;;;;5039891;28;20036;-78
2024/01/06 07:15:35;;;;;;;10.82;4.35;;;6.80;97.90;;;;;;5038046;28;20067;-78
2024/01/06 07:18:00;;;;;;;8.07;3.20;;;6.80;97.90;;;;;;5055919;28;20076;-77
2024/01/06 07:20:26;;;;;;;9.25;4.10;;;6.80;97.90;;;;;;5052180;28;20129;-77
2024/01/06 07:22:52;;;;;;;10.98;4.22;;;6.70;98.00;;;;;;5039159;28;20035;-75
2024/01/06 07:25:17;;;;;;;8.25;3.97;;;6.60;98.10;;;;;;5041674;28;20020;-77
2024/01/06 07:27:43;;;;;;;9.90;3.95;;;6.70;98.20;;;;;;5051662;28;20048;-75
2024/01/06 07:30:09;;;;;;;9.82;3.90;;;6.60;98.20;;;;;;5058815;28;20512;-74
2024/01/06 07:32:34;;;;;;;9.05;4.80;;;6.60;98.20;;;;;;5038611;28;20037;-77
2024/01/06 07:35:00;;;;;;;10.07;5.45;;;6.70;98.30;;;;;;5054697;28;20020;-76
2024/01/06 07:37:26;;;;;;;13.98;6.28;;;6.60;98.20;;;;;;5056836;28;20477;-75
2024/01/06 07:39:51;;;;;;;9.57;4.72;;;6.70;98.30;;;;;;5049570;28;20329;-77
2024/01/06 07:42:18;;;;;;;14.65;6.60;;;6.60;98.20;;;;;;5051914;28;20028;-75
2024/01/06 07:44:44;;;;;;;10.20;5.70;;;6.70;98.30;;;;;;5056897;28;20107;-74
2024/01/06 07:47:10;;;;;;;11.93;5.68;;;6.60;98.30;;;;;;5053615;28;20553;-76
2024/01/06 07:49:36;;;;;;;11.52;5.93;;;6.70;98.30;;;;;;5054587;28;20060;-75
2024/01/06 07:52:02;;;;;;;11.70;5.72;;;6.70;98.30;;;;;;5042185;28;20401;-76
2024/01/06 07:54:28;;;;;;;10.38;5.72;;;6.70;98.30;;;;;;5049677;28;20037;-77
2024/01/06 07:56:53;;;;;;;12.85;6.28;;;6.70;98.30;;;;;;5059966;28;20021;-75
2024/01/06 07:59:19;;;;;;;12.23;6.07;;;6.70;98.20;;;;;;5037493;28;20425;-78
2024/01/06 08:01:44;;;;;;;10.70;5.72;;;6.70;98.30;;;;;;5042376;28;20033;-78
2024/01/06 08:04:10;;;;;;;10.73;6.70;;;6.60;98.30;;;;;;5055772;28;20036;-77
2024/01/06 08:06:36;;;;;;;12.35;6.15;;;6.60;98.30;;;;;;5035898;28;20024;-77
2024/01/06 08:09:03;;;;;;;11.18;6.38;;;6.60;98.30;;;;;;5057464;28;20040;-74
2024/01/06 08:11:29;;;;;;;12.05;6.28;;;6.60;98.30;;;;;;5055442;28;20047;-79
2024/01/06 08:13:54;;;;;;;11.75;6.40;;;6.60;98.30;;;;;;5053295;28;20059;-75
2024/01/06 08:16:20;;;;;;;15.05;7.38;;;6.60;98.40;;;;;;5056930;28;20327;-78
2024/01/06 08:18:46;;;;;;;11.95;5.93;;;6.70;98.40;;;;;;5055499;28;20051;-77
2024/01/06 08:21:12;;;;;;;14.05;6.90;;;6.60;98.30;;;;;;5063656;28;20516;-76
2024/01/06 08:23:37;;;;;;;12.00;6.40;;;6.60;98.30;;;;;;5039999;28;20067;-77
2024/01/06 08:26:05;;;;;;;15.05;6.45;;;6.60;98.30;;;;;;5059690;28;20142;-77
2024/01/06 08:28:30;;;;;;;11.27;7.10;;;6.60;98.30;;;;;;5058983;28;20061;-76
2024/01/06 08:30:56;;;;;;;11.40;6.30;;;6.60;98.30;;;;;;5042060;28;20484;-80
2024/01/06 08:33:21;;;;;;;12.40;6.72;;;6.60;98.30;;;;;;5059254;28;20043;-77
2024/01/06 08:35:48;;;;;;;12.02;6.40;;;6.60;98.30;;;;;;5042305;28;20067;-76
2024/01/06 08:38:14;;;;;;;15.20;6.90;;;6.60;98.30;;;;;;5058048;28;20032;-78
2024/01/06 08:40:39;;;;;;;13.75;6.70;;;6.60;98.40;;;;;;5044771;28;20515;-76
2024/01/06 08:43:05;;;;;;;11.98;6.72;;;6.60;98.40;;;;;;5038973;28;20040;-78
2024/01/06 08:45:31;;;;;;;11.13;6.55;;;6.60;98.40;;;;;;5056677;28;20481;-78
2024/01/06 08:47:57;;;;;;;11.40;6.25;;;6.60;98.40;;;;;;5042013;28;20656;-78
2024/01/06 08:50:22;;;;;;;13.18;6.28;;;6.60;98.30;;;;;;5058063;28;20530;-78
2024/01/06 08:52:48;;;;;;;11.50;6.22;;;6.60;98.30;;;;;;5055775;28;20033;-78
2024/01/06 08:55:14;;;;;;;10.00;5.70;;;6.60;98.30;;;;;;5047433;28;20082;-75
2024/01/06 08:57:40;;;;;;;12.20;6.28;;;6.60;98.30;;;;;;5033291;28;20131;-79
2024/01/06 09:00:06;;;;;;;10.32;5.82;;;6.60;98.30;;;;;;5052390;28;20032;-74
2024/01/06 09:02:31;;;;;;;10.73;5.85;;;6.60;98.20;;;;;;5053626;28;20033;-74
2024/01/06 09:04:57;;;;;;;12.13;4.90;;;6.60;98.00;;;;;;5056770;28;20024;-75
2024/01/06 09:07:22;;;;;;;10.25;4.80;;;6.50;98.00;;;;;;5043246;28;20021;-77
2024/01/06 09:09:48;;;;;;;9.82;5.25;;;6.50;98.00;;;;;;5033520;28;20035;-75
2024/01/06 09:12:14;;;;;;;11.55;4.78;;;6.60;98.00;;;;;;5055640;28;20381;-74
2024/01/06 09:14:40;;;;;;;10.90;4.40;;;6.60;97.90;;;;;;5059857;28;20111;-77
2024/01/06 09:17:06;;;;;;;9.93;4.53;;;6.50;97.70;;;;;;5052132;28;20033;-77
2024/01/06 09:19:32;;;;;;;10.52;4.50;;;6.50;97.70;;;;;;5042555;28;20461;-75
2024/01/06 09:21:57;;;;;;;12.43;5.20;;;6.50;97.70;;;;;;5043737;28;20615;-77
2024/01/06 09:24:23;;;;;;;9.85;4.38;;;6.60;97.60;;;;;;5038746;28;20534;-75
2024/01/06 09:26:50;;;;;;;9.07;4.43;;;6.60;97.60;;;;;;5060436;28;20028;-77
2024/01/06 09:29:16;;;;;;;8.05;4.30;;;6.60;97.50;;;;;;5056158;28;20043;-77
2024/01/06 09:31:42;;;;;;;10.25;4.00;;;6.60;97.30;;;;;;5038446;28;20369;-77
2024/01/06 09:34:10;;;;;;;11.55;4.82;;;6.50;97.30;;;;;;5048799;28;20044;-79
2024/01/06 09:36:36;;;;;;;9.48;4.68;;;6.50;97.40;;;;;;5081037;28;20043;-78
2024/01/06 09:39:01;;;;;;;11.07;5.85;;;6.60;97.40;;;;;;5074860;28;20025;-77
2024/01/06 09:41:27;;;;;;;12.82;5.53;;;6.50;97.40;;;;;;5042868;28;20086;-76
2024/01/06 09:43:53;;;;;;;10.32;5.20;;;6.60;97.40;;;;;;5054610;28;20052;-78
2024/01/06 09:46:26;;;;;;;9.32;4.78;;;6.60;97.30;;;;;;5062714;28;20111;-75
2024/01/06 09:48:56;;;;;;;11.35;4.72;;;6.60;97.00;;;;;;5069806;28;20029;-76
2024/01/06 09:51:23;;;;;;;8.15;3.85;;;6.60;97.00;;;;;;5071444;28;20020;-73
2024/01/06 09:53:58;;;;;;;12.43;4.80;;;6.60;97.00;;;;;;5070126;28;20097;-72
2024/01/06 09:56:25;;;;;;;12.23;6.60;;;6.60;97.10;;;;;;5060513;28;20112;-74
2024/01/06 09:58:51;;;;;;;11.48;5.30;;;6.70;96.90;;;;;;5051647;28;20094;-74
2024/01/06 10:01:20;;;;;;;9.48;4.63;;;6.60;96.70;;;;;;5039736;28;20033;-76
2024/01/06 10:03:46;;;;;;;10.25;4.70;;;6.60;96.70;;;;;;5046971;28;20043;-73
2024/01/06 10:06:16;;;;;;;10.25;4.72;;;6.70;96.80;;;;;;5057780;28;20039;-74
2024/01/06 10:08:43;;;;;;;10.07;4.82;;;6.70;96.80;;;;;;5056887;28;20040;-74
2024/01/06 10:11:12;;;;;;;13.82;5.45;;;6.70;96.50;;;;;;5050481;28;20017;-73
2024/01/06 10:13:38;;;;;;;9.07;4.57;;;6.70;96.50;;;;;;5033271;28;20443;-74
2024/01/06 10:16:05;;;;;;;14.27;5.70;;;6.80;96.30;;;;;;5023275;28;20049;-74
2024/01/06 10:18:31;;;;;;;11.77;5.50;;;6.90;96.30;;;;;;5008605;28;20338;-74
2024/01/06 10:20:58;;;;;;;12.07;5.57;;;6.90;96.10;;;;;;5014870;28;20104;-74
2024/01/06 10:23:26;;;;;;;12.18;6.32;;;6.90;95.90;;;;;;5012795;28;20050;-75
2024/01/06 10:25:55;;;;;;;11.40;5.28;;;6.90;95.80;;;;;;5011485;28;20025;-73
2024/01/06 10:28:22;;;;;;;11.00;6.20;;;6.80;95.60;;;;;;5006081;28;20033;-73
2024/01/06 10:30:51;;;;;;;11.93;5.95;;;6.80;95.70;;;;;;5014055;28;20458;-73
2024/01/06 10:33:16;;;;;;;14.15;6.82;;;6.90;95.60;;;;;;5013248;28;20029;-73
2024/01/06 10:35:43;;;;;;;12.32;6.03;;;6.80;95.40;;;;;;5017689;28;20068;-75
2024/01/06 10:38:09;;;;;;;13.85;6.70;;;6.90;95.60;;;;;;5013479;28;20125;-72
2024/01/06 10:40:35;;;;;;;14.55;6.20;;;6.90;95.50;;;;;;5005638;28;20045;-75
2024/01/06 10:43:01;;;;;;;11.40;6.00;;;6.90;95.60;;;;;;5014796;28;20029;-76
2024/01/06 10:45:29;;;;;;;13.23;5.80;;;6.90;95.50;;;;;;5011282;28;20374;-73
2024/01/06 10:47:56;;;;;;;12.23;6.35;;;7.00;95.40;;;;;;5019694;28;20021;-74
2024/01/06 10:50:23;;;;;;;13.55;6.68;;;6.90;95.20;;;;;;5011356;28;20029;-75
2024/01/06 10:52:50;;;;;;;14.15;6.80;;;6.90;95.20;;;;;;5014683;28;20386;-74
2024/01/06 10:55:17;;;;;;;11.82;6.70;;;6.90;95.20;;;;;;5021408;28;20025;-74
2024/01/06 10:57:46;;;;;;;16.27;7.28;;;6.90;95.40;;;;;;5016692;28;20141;-74
2024/01/06 11:00:13;;;;;;;10.80;6.65;;;6.80;95.40;;;;;;5019235;28;20029;-74
2024/01/06 11:02:41;;;;;;;12.55;7.15;;;6.80;95.40;;;;;;5018393;28;20094;-72
2024/01/06 11:05:10;;;;;;;14.68;6.60;;;6.60;94.80;;;;;;5008883;28;20021;-77
2024/01/06 11:07:37;;;;;;;15.63;8.05;;;6.30;94.90;;;;;;5007569;28;20026;-76
2024/01/06 11:10:16;;;;;;;12.45;7.03;;;6.30;95.00;;;;;;5018163;28;20022;-74
2024/01/06 11:12:43;;;;;;;11.95;7.25;;;6.30;95.00;;;;;;5014442;28;20466;-75
2024/01/06 11:15:08;;;;;;;10.93;7.05;;;6.20;94.90;;;;;;5025605;28;20032;-74
2024/01/06 11:17:53;;;;;;;13.60;6.68;;;6.20;95.10;;;;;;5057246;28;20037;-75
2024/01/06 11:20:21;;;;;;;11.15;6.30;;;6.20;95.10;;;;;;5061578;28;20016;-76
2024/01/06 11:22:47;;;;;;;12.77;7.88;;;6.30;95.20;;;;;;5052390;28;20033;-74
2024/01/06 11:25:17;;;;;;;12.63;7.88;;;6.50;95.30;;;;;;5055445;28;20028;-75
2024/01/06 11:27:45;;;;;;;11.45;7.20;;;6.60;95.00;;;;;;5048941;28;20159;-73
2024/01/06 11:30:24;;;;;;;14.05;7.57;;;6.50;94.70;;;;;;5058561;28;20028;-73
2024/01/06 11:32:53;;;;;;;14.13;7.13;;;6.50;94.30;;;;;;5059971;28;20028;-73
2024/01/06 11:35:19;;;;;;;10.98;7.10;;;6.50;94.30;;;;;;5050825;28;20016;-73
2024/01/06 11:37:45;;;;;;;11.55;6.32;;;6.50;94.40;;;;;;5036886;28;20037;-73
2024/01/06 11:40:26;;;;;;;11.60;6.97;;;6.50;94.40;;;;;;5042660;28;20044;-74
2024/01/06 11:42:59;;;;;;;11.68;6.97;;;6.60;94.40;;;;;;5058476;28;20063;-75
2024/01/06 11:45:25;;;;;;;13.05;6.78;;;6.60;94.20;;;;;;5050060;28;20529;-76
2024/01/06 11:48:14;;;;;;;15.63;6.80;;;6.70;94.10;;;;;;5023819;28;20382;-73
2024/01/06 11:50:40;;;;;;;13.07;7.20;;;6.80;94.10;;;;;;5052515;28;20037;-78
2024/01/06 11:53:09;;;;;;;12.73;6.38;;;6.80;93.70;;;;;;5036621;28;20028;-76
2024/01/06 11:55:36;;;;;;;12.00;5.80;;;6.70;92.90;;;;;;5051736;28;20021;-76
2024/01/06 11:58:02;;;;;;;13.35;5.82;;;6.60;93.10;;;;;;5054781;28;20032;-73
2024/01/06 12:00:29;;;;;;;16.08;6.80;;;6.70;92.80;;;;;;5055432;28;20027;-74
2024/01/06 12:03:00;;;;;;;15.23;7.82;;;6.80;92.80;;;;;;5055787;28;20087;-75
2024/01/06 12:05:27;;;;;;;13.50;6.25;;;6.60;92.50;;;;;;5032034;28;20109;-80
2024/01/06 12:08:00;;;;;;;10.40;5.57;;;6.70;92.70;;;;;;5041502;28;20033;-77
2024/01/06 12:10:27;;;;;;;12.60;6.95;;;6.80;92.60;;;;;;5035363;28;20148;-76
2024/01/06 12:13:01;;;;;;;15.13;7.03;;;6.80;92.40;;;;;;5044755;28;20072;-75
2024/01/06 12:15:29;;;;;;;11.63;6.73;;;6.90;92.70;;;;;;5044751;28;20684;-79
2024/01/06 12:17:55;;;;;;;15.27;6.03;;;7.00;92.50;;;;;;5043041;28;20495;-74
2024/01/06 12:20:22;;;;;;;10.40;5.10;;;7.00;92.10;;;;;;5045139;28;20032;-75
2024/01/06 12:22:48;;;;;;;12.93;6.75;;;7.10;91.80;;;;;;5029592;28;20483;-76
2024/01/06 12:25:15;;;;;;;13.57;6.88;;;7.00;91.50;;;;;;5029843;28;20229;-75
2024/01/06 12:27:44;;;;;;;13.25;6.63;;;7.10;91.70;;;;;;5044044;28;20154;-77
2024/01/06 12:30:18;;;;;;;12.13;5.10;;;7.10;91.30;;;;;;5046299;28;20025;-76
2024/01/06 12:32:45;;;;;;;11.93;5.63;;;7.00;91.20;;;;;;5045729;28;20035;-75
2024/01/06 12:35:12;;;;;;;10.48;4.90;;;7.10;91.30;;;;;;5044991;28;20028;-76
2024/01/06 12:37:38;;;;;;;7.53;4.45;;;7.10;90.90;;;;;;5030922;28;20081;-77
2024/01/06 12:40:05;;;;;;;12.80;5.68;;;7.10;90.80;;;;;;5052447;28;20047;-76
2024/01/06 12:42:31;;;;;;;8.55;4.50;;;7.00;90.80;;;;;;5044699;28;20227;-77
2024/01/06 12:44:57;;;;;;;11.82;4.63;;;7.00;90.30;;;;;;5050008;28;20602;-77
2024/01/06 12:47:24;;;;;;;8.70;4.03;;;7.10;90.10;;;;;;5029173;28;20032;-77